Terminal Aerodrome Forecast
Issued by NWS Green Bay, WI

Home | Current Version | Previous Version | Text Only | Print | Product List | Glossary Off
Versions: 1 2 3 4 5 6 7 8 9 10 11 12 13 14 15 16 17 18 19 20 21 22 23

000
FTUS43 KGRB 100520
TAFGRB
TAF
KGRB 100520Z 1006/1106 23004KT P6SM -SHSN BKN050 BKN080
     FM101200 26005KT P6SM BKN040
     FM101600 31006KT P6SM BKN045
     FM110100 30004KT P6SM SCT080=

USA.gov is the U.S. government's official web portal to all federal, state and local government web resources and services.